<?xml version='1.0' encoding='UTF-8'?><gpx version="1.1" creator="JPX - https://github.com/jenetics/jpx" xmlns="http://www.topografix.com/GPX/1/1"><trk><trkseg><trkpt lat="46.602291" lon="12.4743083"><ele>1268.0</ele><time>2026-04-19T15:43:43.672Z</time></trkpt><trkpt lat="46.6022429" lon="12.4741154"><ele>1268.0</ele><time>2026-04-19T15:43:46.54Z</time></trkpt><trkpt lat="46.6022223" lon="12.4739603"><ele>1268.0</ele><time>2026-04-19T15:43:48.541Z</time></trkpt><trkpt lat="46.6022055" lon="12.4738568"><ele>1268.0</ele><time>2026-04-19T15:43:50.54Z</time></trkpt><trkpt lat="46.6021782" lon="12.4737499"><ele>1268.0</ele><time>2026-04-19T15:43:52.539Z</time></trkpt><trkpt lat="46.6021606" lon="12.4736224"><ele>1268.0</ele><time>2026-04-19T15:43:55.54Z</time></trkpt><trkpt lat="46.6021428" lon="12.4735236"><ele>1268.0</ele><time>2026-04-19T15:43:58.54Z</time></trkpt><trkpt lat="46.6021094" lon="12.4734175"><ele>1268.0</ele><time>2026-04-19T15:44:01.545Z</time></trkpt><trkpt lat="46.602122" lon="12.473327"><ele>1268.0</ele><time>2026-04-19T15:44:06.545Z</time></trkpt><trkpt lat="46.6021461" lon="12.4734192"><ele>1268.0</ele><time>2026-04-19T15:44:14.557Z</time></trkpt><trkpt lat="46.6021673" lon="12.4735154"><ele>1268.0</ele><time>2026-04-19T15:44:22.569Z</time></trkpt><trkpt lat="46.6021672" lon="12.473609"><ele>1268.0</ele><time>2026-04-19T15:44:28.521Z</time></trkpt><trkpt lat="46.6022134" lon="12.4737739"><ele>1268.0</ele><time>2026-04-19T15:44:37.541Z</time></trkpt><trkpt lat="46.6022266" lon="12.4738793"><ele>1268.0</ele><time>2026-04-19T15:44:41.549Z</time></trkpt><trkpt lat="46.6022397" lon="12.4739784"><ele>1268.0</ele><time>2026-04-19T15:44:48.538Z</time></trkpt><trkpt lat="46.6022548" lon="12.474072"><ele>1268.0</ele><time>2026-04-19T15:44:55.547Z</time></trkpt><trkpt lat="46.6022561" lon="12.4741821"><ele>1268.0</ele><time>2026-04-19T15:45:02.543Z</time></trkpt><trkpt lat="46.6022889" lon="12.4742796"><ele>1268.0</ele><time>2026-04-19T15:45:09.549Z</time></trkpt><trkpt lat="46.6023215" lon="12.4743701"><ele>1268.0</ele><time>2026-04-19T15:45:14.54Z</time></trkpt><trkpt lat="46.6023563" lon="12.4744604"><ele>1268.0</ele><time>2026-04-19T15:45:20.512Z</time></trkpt><trkpt lat="46.6022944" lon="12.4744996"><ele>1268.0</ele><time>2026-04-19T15:45:28.54Z</time></trkpt><trkpt lat="46.6022576" lon="12.4744202"><ele>1268.0</ele><time>2026-04-19T15:45:47.541Z</time></trkpt><trkpt lat="46.6022769" lon="12.4743321"><ele>1268.0</ele><time>2026-04-19T15:46:49.541Z</time></trkpt><trkpt lat="46.6022596" lon="12.4742093"><ele>1268.0</ele><time>2026-04-19T15:46:52.542Z</time></trkpt><trkpt lat="46.6022068" lon="12.4741464"><ele>1268.0</ele><time>2026-04-19T15:46:54.549Z</time></trkpt><trkpt lat="46.6022123" lon="12.4740173"><ele>1268.0</ele><time>2026-04-19T15:46:57.544Z</time></trkpt><trkpt lat="46.6022248" lon="12.4738362"><ele>1271.4285714285716</ele><time>2026-04-19T15:47:01.55Z</time></trkpt><trkpt lat="46.6022183" lon="12.4737141"><ele>1274.857142857143</ele><time>2026-04-19T15:47:03.542Z</time></trkpt><trkpt lat="46.6021937" lon="12.4736226"><ele>1278.2857142857142</ele><time>2026-04-19T15:47:05.556Z</time></trkpt><trkpt lat="46.602155" lon="12.4735298"><ele>1281.7142857142858</ele><time>2026-04-19T15:47:07.567Z</time></trkpt><trkpt lat="46.6021292" lon="12.4734406"><ele>1285.142857142857</ele><time>2026-04-19T15:47:09.545Z</time></trkpt><trkpt lat="46.6021643" lon="12.473524"><ele>1288.5714285714287</ele><time>2026-04-19T15:47:53.474Z</time></trkpt><trkpt lat="46.6021842" lon="12.4736197"><ele>1292.0</ele><time>2026-04-19T15:48:01.54Z</time></trkpt><trkpt lat="46.6021966" lon="12.4737156"><ele>1288.5714285714287</ele><time>2026-04-19T15:48:11.584Z</time></trkpt><trkpt lat="46.6022122" lon="12.4738112"><ele>1285.142857142857</ele><time>2026-04-19T15:48:21.54Z</time></trkpt><trkpt lat="46.6022316" lon="12.4738994"><ele>1281.7142857142858</ele><time>2026-04-19T15:48:29.539Z</time></trkpt><trkpt lat="46.6022645" lon="12.4739798"><ele>1278.2857142857142</ele><time>2026-04-19T15:48:37.54Z</time></trkpt><trkpt lat="46.6023048" lon="12.4740635"><ele>1274.857142857143</ele><time>2026-04-19T15:48:44.54Z</time></trkpt><trkpt lat="46.6022862" lon="12.4741586"><ele>1271.4285714285716</ele><time>2026-04-19T15:48:49.541Z</time></trkpt><trkpt lat="46.6023065" lon="12.4742473"><ele>1268.0</ele><time>2026-04-19T15:48:55.54Z</time></trkpt><trkpt lat="46.6023221" lon="12.4743389"><ele>1268.0</ele><time>2026-04-19T15:49:00.54Z</time></trkpt><trkpt lat="46.6023474" lon="12.4744334"><ele>1268.0</ele><time>2026-04-19T15:49:06.539Z</time></trkpt><trkpt lat="46.6023322" lon="12.4745317"><ele>1268.0</ele><time>2026-04-19T15:49:13.54Z</time></trkpt><trkpt lat="46.6022877" lon="12.4744643"><ele>1268.0</ele><time>2026-04-19T15:49:25.541Z</time></trkpt><trkpt lat="46.6022907" lon="12.4743694"><ele>1268.0</ele><time>2026-04-19T15:49:31.539Z</time></trkpt><trkpt lat="46.6022747" lon="12.4742732"><ele>1268.0</ele><time>2026-04-19T15:49:36.541Z</time></trkpt><trkpt lat="46.6022642" lon="12.4741789"><ele>1268.0</ele><time>2026-04-19T15:49:43.54Z</time></trkpt><trkpt lat="46.6022435" lon="12.4740817"><ele>1268.0</ele><time>2026-04-19T15:49:48.54Z</time></trkpt><trkpt lat="46.602226" lon="12.4739811"><ele>1268.0</ele><time>2026-04-19T15:49:53.54Z</time></trkpt><trkpt lat="46.6022179" lon="12.4738802"><ele>1268.0</ele><time>2026-04-19T15:49:57.541Z</time></trkpt><trkpt lat="46.6021928" lon="12.4737621"><ele>1268.0</ele><time>2026-04-19T15:50:00.54Z</time></trkpt><trkpt lat="46.6021742" lon="12.4736518"><ele>1268.0</ele><time>2026-04-19T15:50:03.541Z</time></trkpt><trkpt lat="46.6021643" lon="12.4735529"><ele>1268.0</ele><time>2026-04-19T15:50:06.54Z</time></trkpt><trkpt lat="46.6021327" lon="12.4734391"><ele>1268.0</ele><time>2026-04-19T15:50:10.541Z</time></trkpt><trkpt lat="46.6021569" lon="12.4735294"><ele>1268.0</ele><time>2026-04-19T15:50:52.54Z</time></trkpt><trkpt lat="46.6021816" lon="12.4736315"><ele>1268.0</ele><time>2026-04-19T15:51:02.541Z</time></trkpt><trkpt lat="46.6021996" lon="12.4737197"><ele>1268.0</ele><time>2026-04-19T15:51:10.54Z</time></trkpt><trkpt lat="46.6022299" lon="12.4738087"><ele>1268.0</ele><time>2026-04-19T15:51:17.518Z</time></trkpt><trkpt lat="46.6022363" lon="12.4739059"><ele>1268.0</ele><time>2026-04-19T15:51:24.539Z</time></trkpt><trkpt lat="46.6022383" lon="12.4740008"><ele>1268.0</ele><time>2026-04-19T15:51:30.548Z</time></trkpt><trkpt lat="46.602233" lon="12.4740938"><ele>1268.0</ele><time>2026-04-19T15:51:35.565Z</time></trkpt><trkpt lat="46.6022352" lon="12.4741993"><ele>1268.0</ele><time>2026-04-19T15:51:41.541Z</time></trkpt><trkpt lat="46.6022519" lon="12.4742931"><ele>1268.0</ele><time>2026-04-19T15:51:46.54Z</time></trkpt><trkpt lat="46.6022748" lon="12.4743901"><ele>1268.0</ele><time>2026-04-19T15:51:51.548Z</time></trkpt><trkpt lat="46.6023411" lon="12.4743634"><ele>1268.0</ele><time>2026-04-19T15:51:55.545Z</time></trkpt><trkpt lat="46.602408" lon="12.4743082"><ele>1268.0</ele><time>2026-04-19T15:52:01.541Z</time></trkpt><trkpt lat="46.602361" lon="12.4742463"><ele>1268.0</ele><time>2026-04-19T15:52:05.543Z</time></trkpt><trkpt lat="46.6022912" lon="12.4742672"><ele>1268.0</ele><time>2026-04-19T15:52:13.507Z</time></trkpt><trkpt lat="46.6023233" lon="12.4744103"><ele>1268.0</ele><time>2026-04-19T15:52:14.545Z</time></trkpt><trkpt lat="46.6023456" lon="12.4745343"><ele>1268.0</ele><time>2026-04-19T15:52:16.545Z</time></trkpt><trkpt lat="46.602349" lon="12.4746499"><ele>1268.0</ele><time>2026-04-19T15:52:19.543Z</time></trkpt><trkpt lat="46.6023634" lon="12.4747539"><ele>1268.0</ele><time>2026-04-19T15:52:23.559Z</time></trkpt><trkpt lat="46.6023747" lon="12.474863"><ele>1268.0</ele><time>2026-04-19T15:52:27.549Z</time></trkpt><trkpt lat="46.6023954" lon="12.4749746"><ele>1266.2857142857142</ele><time>2026-04-19T15:52:32.556Z</time></trkpt><trkpt lat="46.6024238" lon="12.4750717"><ele>1264.5714285714284</ele><time>2026-04-19T15:52:36.544Z</time></trkpt><trkpt lat="46.6024655" lon="12.4751587"><ele>1262.8571428571427</ele><time>2026-04-19T15:52:39.549Z</time></trkpt><trkpt lat="46.60253" lon="12.4752293"><ele>1261.142857142857</ele><time>2026-04-19T15:52:43.546Z</time></trkpt><trkpt lat="46.6025879" lon="12.4752783"><ele>1259.4285714285713</ele><time>2026-04-19T15:52:46.552Z</time></trkpt><trkpt lat="46.6026517" lon="12.4753179"><ele>1257.7142857142856</ele><time>2026-04-19T15:52:49.544Z</time></trkpt><trkpt lat="46.6027242" lon="12.4753335"><ele>1256.0</ele><time>2026-04-19T15:52:53.554Z</time></trkpt><trkpt lat="46.6027836" lon="12.4753721"><ele>1251.7142857142856</ele><time>2026-04-19T15:52:58.562Z</time></trkpt><trkpt lat="46.6028442" lon="12.4754382"><ele>1247.4285714285713</ele><time>2026-04-19T15:53:03.577Z</time></trkpt><trkpt lat="46.6029163" lon="12.4755008"><ele>1243.142857142857</ele><time>2026-04-19T15:53:07.58Z</time></trkpt><trkpt lat="46.6029785" lon="12.4755636"><ele>1238.8571428571427</ele><time>2026-04-19T15:53:10.558Z</time></trkpt><trkpt lat="46.603035" lon="12.4756156"><ele>1234.5714285714284</ele><time>2026-04-19T15:53:13.541Z</time></trkpt><trkpt lat="46.6030945" lon="12.4756836"><ele>1230.2857142857142</ele><time>2026-04-19T15:53:17.546Z</time></trkpt><trkpt lat="46.6031345" lon="12.4757614"><ele>1226.0</ele><time>2026-04-19T15:53:20.55Z</time></trkpt><trkpt lat="46.6031947" lon="12.475806"><ele>1226.0</ele><time>2026-04-19T15:53:23.547Z</time></trkpt><trkpt lat="46.6032616" lon="12.4758519"><ele>1226.0</ele><time>2026-04-19T15:53:26.554Z</time></trkpt><trkpt lat="46.6033233" lon="12.4759092"><ele>1226.0</ele><time>2026-04-19T15:53:29.546Z</time></trkpt><trkpt lat="46.6033723" lon="12.475995"><ele>1226.0</ele><time>2026-04-19T15:53:32.565Z</time></trkpt><trkpt lat="46.6034396" lon="12.4760774"><ele>1226.0</ele><time>2026-04-19T15:53:35.543Z</time></trkpt><trkpt lat="46.6035021" lon="12.4761512"><ele>1226.0</ele><time>2026-04-19T15:53:38.552Z</time></trkpt><trkpt lat="46.6035622" lon="12.4762164"><ele>1224.1666666666667</ele><time>2026-04-19T15:53:41.549Z</time></trkpt><trkpt lat="46.6036234" lon="12.4762965"><ele>1222.3333333333335</ele><time>2026-04-19T15:53:44.553Z</time></trkpt><trkpt lat="46.6036641" lon="12.4764053"><ele>1220.5</ele><time>2026-04-19T15:53:47.548Z</time></trkpt><trkpt lat="46.6037177" lon="12.4764874"><ele>1218.6666666666667</ele><time>2026-04-19T15:53:50.548Z</time></trkpt><trkpt lat="46.603767" lon="12.4765769"><ele>1216.8333333333333</ele><time>2026-04-19T15:53:53.552Z</time></trkpt><trkpt lat="46.6038376" lon="12.4766793"><ele>1215.0</ele><time>2026-04-19T15:53:56.547Z</time></trkpt><trkpt lat="46.6038983" lon="12.4767517"><ele>1214.6666666666667</ele><time>2026-04-19T15:53:58.56Z</time></trkpt><trkpt lat="46.6039332" lon="12.4768566"><ele>1214.3333333333333</ele><time>2026-04-19T15:54:01.576Z</time></trkpt><trkpt lat="46.6039642" lon="12.476938"><ele>1214.0</ele><time>2026-04-19T15:54:09.542Z</time></trkpt><trkpt lat="46.6039965" lon="12.4770361"><ele>1213.6666666666665</ele><time>2026-04-19T15:54:12.546Z</time></trkpt><trkpt lat="46.6040413" lon="12.4771459"><ele>1213.3333333333333</ele><time>2026-04-19T15:54:15.546Z</time></trkpt><trkpt lat="46.604089" lon="12.4772444"><ele>1213.0</ele><time>2026-04-19T15:54:18.549Z</time></trkpt><trkpt lat="46.604096" lon="12.4773687"><ele>1212.0</ele><time>2026-04-19T15:54:21.546Z</time></trkpt><trkpt lat="46.6040893" lon="12.4774967"><ele>1211.0</ele><time>2026-04-19T15:54:24.552Z</time></trkpt><trkpt lat="46.6040798" lon="12.4776214"><ele>1210.0</ele><time>2026-04-19T15:54:27.557Z</time></trkpt><trkpt lat="46.604052" lon="12.477728"><ele>1209.0</ele><time>2026-04-19T15:54:30.5Z</time></trkpt><trkpt lat="46.6040227" lon="12.4778328"><ele>1208.0</ele><time>2026-04-19T15:54:33.547Z</time></trkpt><trkpt lat="46.6039887" lon="12.4779292"><ele>1207.0</ele><time>2026-04-19T15:54:36.542Z</time></trkpt><trkpt lat="46.6039415" lon="12.4780308"><ele>1206.6666666666665</ele><time>2026-04-19T15:54:39.548Z</time></trkpt><trkpt lat="46.6038753" lon="12.4781173"><ele>1206.3333333333333</ele><time>2026-04-19T15:54:42.548Z</time></trkpt><trkpt lat="46.6038026" lon="12.4781979"><ele>1206.0</ele><time>2026-04-19T15:54:45.574Z</time></trkpt><trkpt lat="46.6037592" lon="12.4782881"><ele>1205.6666666666667</ele><time>2026-04-19T15:54:48.545Z</time></trkpt><trkpt lat="46.603726" lon="12.4783791"><ele>1205.3333333333335</ele><time>2026-04-19T15:54:51.546Z</time></trkpt><trkpt lat="46.6037015" lon="12.4784782"><ele>1205.0</ele><time>2026-04-19T15:54:54.557Z</time></trkpt><trkpt lat="46.603659" lon="12.4785665"><ele>1205.0</ele><time>2026-04-19T15:54:57.546Z</time></trkpt><trkpt lat="46.6036086" lon="12.478651"><ele>1205.0</ele><time>2026-04-19T15:55:00.544Z</time></trkpt><trkpt lat="46.6035526" lon="12.4787413"><ele>1205.0</ele><time>2026-04-19T15:55:03.586Z</time></trkpt><trkpt lat="46.6034997" lon="12.4788307"><ele>1205.0</ele><time>2026-04-19T15:55:06.583Z</time></trkpt><trkpt lat="46.6034571" lon="12.4789269"><ele>1205.0</ele><time>2026-04-19T15:55:09.547Z</time></trkpt><trkpt lat="46.6034181" lon="12.4790261"><ele>1205.0</ele><time>2026-04-19T15:55:12.586Z</time></trkpt><trkpt lat="46.6033832" lon="12.4791339"><ele>1204.0</ele><time>2026-04-19T15:55:15.553Z</time></trkpt><trkpt lat="46.603334" lon="12.4792277"><ele>1203.0</ele><time>2026-04-19T15:55:18.547Z</time></trkpt><trkpt lat="46.6032593" lon="12.479273"><ele>1202.0</ele><time>2026-04-19T15:55:21.553Z</time></trkpt><trkpt lat="46.6031798" lon="12.4792501"><ele>1201.0</ele><time>2026-04-19T15:55:24.541Z</time></trkpt><trkpt lat="46.6031058" lon="12.4792361"><ele>1200.0</ele><time>2026-04-19T15:55:27.548Z</time></trkpt><trkpt lat="46.6030339" lon="12.4792385"><ele>1199.0</ele><time>2026-04-19T15:55:30.548Z</time></trkpt><trkpt lat="46.6029602" lon="12.4792438"><ele>1199.0</ele><time>2026-04-19T15:55:33.567Z</time></trkpt><trkpt lat="46.6028947" lon="12.4792444"><ele>1199.0</ele><time>2026-04-19T15:55:36.551Z</time></trkpt><trkpt lat="46.6028252" lon="12.4792475"><ele>1214.0</ele><time>2026-04-19T15:55:39.561Z</time></trkpt><trkpt lat="46.6027474" lon="12.4792188"><ele>1214.0</ele><time>2026-04-19T15:55:42.554Z</time></trkpt><trkpt lat="46.6027766" lon="12.4791263"><ele>1214.0</ele><time>2026-04-19T15:55:52.54Z</time></trkpt><trkpt lat="46.602806" lon="12.4790438"><ele>1214.0</ele><time>2026-04-19T15:56:03.541Z</time></trkpt></trkseg></trk></gpx>